TFS weather

Tenerife South Airport
Tenerife Island, Canary Islands, Spain

Public forecast

Using degrees Celsius for public forecast. Weather courtesy of forecast.io.

METAR (pilot weather report)

Retrieved 2019/03/22 05:30 UTC (17 minutes ago):

GCTS 220530Z 06017G30KT 9999 FEW030 17/09 Q1013 NOSIG

TAF (pilot weather forecast)

Retrieved 2019/03/22 03:27 UTC (2 hours ago):

TAF GCTS 220200Z 2203/2303 06020KT CAVOK TX24/2215Z TN15/2206Z PROB40 TEMPO 2205/2220 07026G36KT